createdAt,value
2018-09-08T00:03:05.771Z,9.14
2018-09-08T00:09:00.748Z,11.34
2018-09-08T00:14:55.770Z,15.25
2018-09-08T00:20:50.753Z,10.27
2018-09-08T00:26:45.768Z,12.36
2018-09-08T00:32:40.765Z,11.54
2018-09-08T00:38:35.830Z,13.03
2018-09-08T00:44:30.770Z,14.74
2018-09-08T00:50:25.769Z,13.44
2018-09-08T00:56:20.831Z,12.93
2018-09-08T01:02:15.796Z,12.07
2018-09-08T01:08:10.798Z,11.2
2018-09-08T01:14:05.797Z,12.85
2018-09-08T01:20:00.883Z,11.02
2018-09-08T01:25:55.900Z,12.59
2018-09-08T01:31:50.808Z,9.69
2018-09-08T01:37:45.804Z,16.15
2018-09-08T01:43:40.806Z,11.3
2018-09-08T01:49:35.801Z,13.02
2018-09-08T01:55:30.850Z,11.95
2018-09-08T02:01:25.826Z,13.17
2018-09-08T02:07:20.839Z,11.51
2018-09-08T02:13:15.859Z,13.52
2018-09-08T02:19:10.937Z,11.81
2018-09-08T02:25:05.857Z,11.17
2018-09-08T02:31:00.852Z,10.52
2018-09-08T02:36:55.852Z,10.27
2018-09-08T02:42:50.891Z,13.79
2018-09-08T02:48:45.933Z,11.14
2018-09-08T02:54:40.892Z,12.25
2018-09-08T03:00:35.876Z,12.16
2018-09-08T03:06:30.931Z,13.95
2018-09-08T03:12:25.872Z,11.64
2018-09-08T03:18:20.906Z,12.86
2018-09-08T03:24:15.899Z,13.25
2018-09-08T03:30:10.914Z,13.4
2018-09-08T03:36:05.901Z,14.49
2018-09-08T03:42:00.902Z,12.86
2018-09-08T03:47:56.021Z,17.51
2018-09-08T03:53:50.911Z,11.91
2018-09-08T03:59:45.900Z,12.63
2018-09-08T04:05:41.079Z,15.66
2018-09-08T04:11:35.917Z,15.14
2018-09-08T04:17:30.946Z,11.97
2018-09-08T04:23:25.922Z,12.62
2018-09-08T04:29:20.959Z,15.02
2018-09-08T04:35:15.944Z,11.58
2018-09-08T04:41:10.950Z,15.41
2018-09-08T04:47:05.962Z,13.01
2018-09-08T04:53:00.991Z,12.23
2018-09-08T04:58:56.018Z,12.29
2018-09-08T05:04:50.984Z,14.37
2018-09-08T05:10:45.969Z,13.92
2018-09-08T05:16:41.010Z,17.03
2018-09-08T05:22:35.977Z,14.75
2018-09-08T05:28:31.018Z,17.76
2018-09-08T05:34:25.994Z,17.57
2018-09-08T05:40:21.020Z,22.4
2018-09-08T05:46:15.981Z,12.48
2018-09-08T05:52:11.006Z,15.03
2018-09-08T05:58:06.014Z,13.21
2018-09-08T06:04:01.021Z,16.45
2018-09-08T06:09:56.043Z,14.58
2018-09-08T06:15:51.078Z,16
2018-09-08T06:21:46.017Z,19.03
2018-09-08T06:27:41.023Z,15.63
2018-09-08T06:33:36.019Z,22.38
2018-09-08T06:39:31.028Z,22.19
2018-09-08T06:45:26.026Z,20.47
2018-09-08T06:51:21.043Z,24
2018-09-08T06:57:16.049Z,27.56
2018-09-08T07:03:11.104Z,26.43
2018-09-08T07:09:06.089Z,27.88
2018-09-08T07:15:01.128Z,39.36
2018-09-08T07:20:56.088Z,67.06
2018-09-08T07:26:51.095Z,38.77
2018-09-08T07:32:46.078Z,24.48
2018-09-08T07:38:41.104Z,23.4
2018-09-08T07:44:36.099Z,24.18
2018-09-08T07:50:31.107Z,23.89
2018-09-08T07:56:26.102Z,32.58
2018-09-08T08:02:21.097Z,32.24
2018-09-08T08:08:16.143Z,30.38
2018-09-08T08:14:11.129Z,22.63
2018-09-08T08:20:06.113Z,15.03
2018-09-08T08:26:01.139Z,10.21
2018-09-08T08:31:56.203Z,11.87
2018-09-08T08:37:51.127Z,12.06
2018-09-08T08:43:46.130Z,11.45
2018-09-08T08:49:41.210Z,11.66
2018-09-08T08:55:36.144Z,10.22
2018-09-08T09:01:31.162Z,8.84
2018-09-08T09:07:26.147Z,13.27
2018-09-08T09:13:21.160Z,7.01
2018-09-08T09:19:16.158Z,6.93
2018-09-08T09:25:11.196Z,5.99
2018-09-08T09:31:06.200Z,6.37
2018-09-08T09:37:01.171Z,5.19
2018-09-08T09:42:56.189Z,4.75
2018-09-08T09:48:51.211Z,6.91
2018-09-08T09:54:46.188Z,5.37
2018-09-08T10:00:41.226Z,4.93
2018-09-08T10:06:36.299Z,5.23
2018-09-08T10:12:31.212Z,4.75
2018-09-08T10:18:26.217Z,21.88
2018-09-08T10:24:21.198Z,24.82
2018-09-08T10:30:16.217Z,4.55
2018-09-08T10:36:11.270Z,4.4
2018-09-08T10:42:06.265Z,8.03
2018-09-08T10:48:01.230Z,5.73
2018-09-08T10:53:56.257Z,3.66
2018-09-08T10:59:51.279Z,3.56
2018-09-08T11:05:46.325Z,3.33
2018-09-08T11:11:41.271Z,3.15
2018-09-08T11:17:36.292Z,2.91
2018-09-08T11:23:31.262Z,3.08
2018-09-08T11:29:26.290Z,3
2018-09-08T11:35:21.274Z,6.42
2018-09-08T11:41:16.295Z,2.4
2018-09-08T11:47:11.339Z,3.13
2018-09-08T11:53:06.325Z,3.24
2018-09-08T11:59:01.321Z,2.93
2018-09-08T12:04:56.334Z,3
2018-09-08T12:10:51.315Z,2.84
2018-09-08T12:16:46.345Z,3.16
2018-09-08T12:22:41.389Z,3
2018-09-08T12:28:36.324Z,3.03
2018-09-08T12:34:31.346Z,35.31
2018-09-08T12:40:26.343Z,2.44
2018-09-08T12:46:21.328Z,2.81
2018-09-08T12:52:16.336Z,2.69
2018-09-08T12:58:11.355Z,3.14
2018-09-08T13:04:06.440Z,2.3
2018-09-08T13:10:01.374Z,2.37
2018-09-08T13:15:56.403Z,3.35
2018-09-08T13:21:51.418Z,2.46
2018-09-08T13:27:46.368Z,2.42
2018-09-08T13:33:41.442Z,2.88
2018-09-08T13:39:36.478Z,3.21
2018-09-08T13:45:31.404Z,2.61
2018-09-08T13:51:26.426Z,3.6
2018-09-08T13:57:21.410Z,3.52
2018-09-08T14:03:16.415Z,6.29
2018-09-08T14:09:11.434Z,5.11
2018-09-08T14:15:06.427Z,2.79
2018-09-08T14:21:01.432Z,3.2
2018-09-08T14:26:56.425Z,3.03
2018-09-08T14:32:51.428Z,2.52
2018-09-08T14:38:46.479Z,2.82
2018-09-08T14:44:41.453Z,2.89
2018-09-08T14:50:36.465Z,2.63
2018-09-08T14:56:31.453Z,3.03
2018-09-08T15:02:26.495Z,2.84
2018-09-08T15:08:21.474Z,3.43
2018-09-08T15:14:16.495Z,3.71
2018-09-08T15:20:11.570Z,3.1
2018-09-08T15:26:06.547Z,2.76
2018-09-08T15:32:01.471Z,3.14
2018-09-08T15:37:56.488Z,2.88
2018-09-08T15:43:51.511Z,2.51
2018-09-08T15:49:46.505Z,2.87
2018-09-08T15:55:41.502Z,3.55
2018-09-08T16:01:36.535Z,3.1
2018-09-08T16:07:31.516Z,3.15
2018-09-08T16:13:26.536Z,2.94
2018-09-08T16:19:21.540Z,3.13
2018-09-08T16:25:16.568Z,3.17
2018-09-08T16:31:11.553Z,2.74
2018-09-08T16:37:06.593Z,2.99
2018-09-08T16:43:01.563Z,3.22
2018-09-08T16:48:56.615Z,3.6
2018-09-08T16:54:51.544Z,2.97
2018-09-08T17:00:46.589Z,3.26
2018-09-08T17:06:41.611Z,3.51
2018-09-08T17:12:36.583Z,3.2
2018-09-08T17:18:31.562Z,2.97
2018-09-08T17:24:26.609Z,10.72
2018-09-08T17:30:21.588Z,5.92
2018-09-08T17:36:16.600Z,7.2
2018-09-08T17:42:11.657Z,8.6
2018-09-08T17:48:06.629Z,7.34
2018-09-08T17:54:01.638Z,8.13
2018-09-08T17:59:56.600Z,8.99
2018-09-08T18:05:51.710Z,9.99
2018-09-08T18:11:46.736Z,7.01
2018-09-08T18:17:41.670Z,5.47
2018-09-08T18:23:36.650Z,6.04
2018-09-08T18:29:31.680Z,6.73
2018-09-08T18:35:26.656Z,6.5
2018-09-08T18:41:21.730Z,5.7
2018-09-08T18:47:16.694Z,7.74
2018-09-08T18:53:11.657Z,5.36
2018-09-08T18:59:06.691Z,5.38
2018-09-08T19:05:01.674Z,6.07
2018-09-08T19:10:56.743Z,6.29
2018-09-08T19:16:51.688Z,5.8
2018-09-08T19:22:46.674Z,6.43
2018-09-08T19:28:41.721Z,6.57
2018-09-08T19:34:36.686Z,7.07
2018-09-08T19:40:31.718Z,7.24
2018-09-08T19:46:26.711Z,6.6
2018-09-08T19:52:21.734Z,7.03
2018-09-08T19:58:16.766Z,5.29
2018-09-08T20:04:11.767Z,5.12
2018-09-08T20:10:06.720Z,6.21
2018-09-08T20:16:01.731Z,7.26
2018-09-08T20:21:56.728Z,5.4
2018-09-08T20:27:51.742Z,7.97
2018-09-08T20:33:46.739Z,8.77
2018-09-08T20:39:41.779Z,8.33
2018-09-08T20:45:36.757Z,6.99
2018-09-08T20:51:31.792Z,8.51
2018-09-08T20:57:26.841Z,8.05
2018-09-08T21:03:21.753Z,5.6
2018-09-08T21:09:16.811Z,5.8
2018-09-08T21:15:11.863Z,6.18
2018-09-08T21:21:06.793Z,7.86
2018-09-08T21:27:01.796Z,6.62
2018-09-08T21:32:56.836Z,6.2
2018-09-08T21:38:51.788Z,6.89
2018-09-08T21:44:46.818Z,7.18
2018-09-08T21:50:41.805Z,6.04
2018-09-08T21:56:36.858Z,6.1
2018-09-08T22:02:31.827Z,6.73
2018-09-08T22:08:26.834Z,7.38
2018-09-08T22:14:21.821Z,7.31
2018-09-08T22:20:16.895Z,6.6
2018-09-08T22:26:11.835Z,6.5
2018-09-08T22:32:06.847Z,7.31
2018-09-08T22:38:01.840Z,8.14
2018-09-08T22:43:56.860Z,8.51
2018-09-08T22:49:51.854Z,6.97
2018-09-08T22:55:46.910Z,8.11
2018-09-08T23:01:41.871Z,9.71
2018-09-08T23:07:36.935Z,7.4
2018-09-08T23:13:31.885Z,8.43
2018-09-08T23:19:26.882Z,9.58
2018-09-08T23:25:21.874Z,8.26
2018-09-08T23:31:16.892Z,10.04
2018-09-08T23:37:11.859Z,7.47
2018-09-08T23:43:06.885Z,12.1
2018-09-08T23:49:01.903Z,8.33
2018-09-08T23:54:56.891Z,10.32
